Time;durP1;ratioP1;P1;durP2;ratioP2;P2;SDS_P1;SDS_P2;PMS_P1;PMS_P2;Temp;Humidity;BMP_temperature;BMP_pressure;BME280_temperature;BME280_humidity;BME280_pressure;Samples;Min_cycle;Max_cycle;Signal;HPM_P1;HPM_P2
2022/02/12 00:00:45;;;;;;;7.20;2.00;;;24.40;58.20;;;;;;5033095;28;20200;-74
2022/02/12 00:03:12;;;;;;;5.37;1.30;;;24.60;57.00;;;;;;5029405;28;20199;-73
2022/02/12 00:05:40;;;;;;;7.03;1.53;;;24.60;56.90;;;;;;5032534;28;20191;-74
2022/02/12 00:08:07;;;;;;;9.53;1.73;;;24.50;57.80;;;;;;5033217;28;20639;-74
2022/02/12 00:10:35;;;;;;;13.80;2.20;;;24.30;60.60;;;;;;5032474;28;20180;-74
2022/02/12 00:13:10;;;;;;;11.03;2.70;;;23.90;61.60;;;;;;5032067;28;20173;-74
2022/02/12 00:15:38;;;;;;;8.00;2.40;;;23.80;62.20;;;;;;5029663;28;20683;-74
2022/02/12 00:18:06;;;;;;;9.23;1.97;;;23.90;61.50;;;;;;5032474;28;20177;-76
2022/02/12 00:20:34;;;;;;;7.67;1.70;;;23.80;59.80;;;;;;5026823;28;20298;-74
2022/02/12 00:23:01;;;;;;;7.97;1.80;;;23.90;59.40;;;;;;5029454;28;20176;-76
2022/02/12 00:25:29;;;;;;;4.97;1.30;;;23.90;56.90;;;;;;5034485;28;20208;-74
2022/02/12 00:27:56;;;;;;;10.80;1.73;;;24.00;56.40;;;;;;5028284;28;20255;-74
2022/02/12 00:30:23;;;;;;;7.27;1.93;;;24.70;55.10;;;;;;5031297;28;20184;-75
2022/02/12 00:32:51;;;;;;;5.80;1.70;;;25.00;53.70;;;;;;5029181;28;20262;-73
2022/02/12 00:35:18;;;;;;;10.30;1.50;;;25.20;52.40;;;;;;5031059;28;20188;-75
2022/02/12 00:37:47;;;;;;;7.27;1.37;;;25.30;52.80;;;;;;5032630;28;20201;-75
2022/02/12 00:40:14;;;;;;;6.47;1.60;;;25.30;52.20;;;;;;5033059;28;20192;-74
2022/02/12 00:42:42;;;;;;;9.70;1.60;;;25.50;52.80;;;;;;5032721;28;20774;-75
2022/02/12 00:45:09;;;;;;;7.27;1.43;;;26.00;52.30;;;;;;5031619;28;20265;-74
2022/02/12 00:47:37;;;;;;;4.53;1.53;;;26.00;52.20;;;;;;5030803;28;20203;-74
2022/02/12 00:50:04;;;;;;;13.70;2.20;;;25.80;52.40;;;;;;5030664;28;20271;-74
2022/02/12 00:52:31;;;;;;;6.37;1.73;;;25.80;53.20;;;;;;5032181;28;20185;-77
2022/02/12 00:54:59;;;;;;;6.80;1.47;;;25.50;53.90;;;;;;5033059;28;20181;-75
2022/02/12 00:57:26;;;;;;;9.43;1.60;;;25.30;53.40;;;;;;5032986;28;20180;-73
2022/02/12 00:59:54;;;;;;;11.87;2.13;;;25.10;54.00;;;;;;5032583;28;20234;-73
2022/02/12 01:02:21;;;;;;;10.47;1.90;;;25.10;54.70;;;;;;5032270;28;20240;-74
2022/02/12 01:04:48;;;;;;;12.30;1.97;;;25.40;53.50;;;;;;5032411;28;20191;-76
2022/02/12 01:07:15;;;;;;;8.43;1.87;;;25.40;53.70;;;;;;5031122;28;20231;-72
2022/02/12 01:09:43;;;;;;;8.93;1.70;;;25.50;52.90;;;;;;5031070;28;20267;-74
2022/02/12 01:12:10;;;;;;;7.67;1.70;;;25.70;53.30;;;;;;5032104;28;20546;-75
2022/02/12 01:14:38;;;;;;;8.30;2.00;;;26.00;52.10;;;;;;5031229;28;20215;-74
2022/02/12 01:17:05;;;;;;;6.77;2.70;;;26.20;51.00;;;;;;5029800;28;20252;-74
2022/02/12 01:19:32;;;;;;;8.20;2.03;;;26.50;50.70;;;;;;5030801;28;20220;-76
2022/02/12 01:22:00;;;;;;;7.80;1.77;;;26.00;50.30;;;;;;5032086;28;20208;-76
2022/02/12 01:24:27;;;;;;;6.77;1.47;;;25.60;52.60;;;;;;5031915;28;20177;-75
2022/02/12 01:26:56;;;;;;;8.67;2.13;;;25.20;52.80;;;;;;5028479;28;20192;-76
2022/02/12 01:29:23;;;;;;;7.77;1.77;;;25.00;54.10;;;;;;5030966;28;20187;-77
2022/02/12 01:31:50;;;;;;;7.70;1.60;;;25.00;55.60;;;;;;5031198;28;20242;-74
2022/02/12 01:34:18;;;;;;;12.70;1.97;;;25.10;55.60;;;;;;5031326;28;20183;-76
2022/02/12 01:36:45;;;;;;;9.50;1.77;;;24.80;56.40;;;;;;5030929;28;20192;-74
2022/02/12 01:39:12;;;;;;;9.60;1.90;;;25.00;55.80;;;;;;5030121;28;20177;-75
2022/02/12 01:41:39;;;;;;;14.40;2.73;;;25.30;55.60;;;;;;5030499;28;20327;-74
2022/02/12 01:44:11;;;;;;;12.30;2.93;;;25.10;55.40;;;;;;5031445;28;21927;-75
2022/02/12 01:46:38;;;;;;;10.40;3.33;;;25.10;56.40;;;;;;5031318;28;20207;-73
2022/02/12 01:49:06;;;;;;;12.00;3.00;;;24.90;56.40;;;;;;5031460;28;20184;-75
2022/02/12 01:51:33;;;;;;;10.07;2.10;;;24.80;57.00;;;;;;5030392;28;20192;-74
2022/02/12 01:54:01;;;;;;;10.50;2.10;;;24.60;57.20;;;;;;5031779;28;20187;-72
2022/02/12 01:56:29;;;;;;;12.53;2.30;;;24.50;58.20;;;;;;5031611;28;20173;-73
2022/02/12 01:58:56;;;;;;;12.17;1.97;;;24.50;58.70;;;;;;5031228;28;20559;-73
2022/02/12 02:01:24;;;;;;;14.00;2.77;;;24.40;62.80;;;;;;5031751;28;20215;-78
2022/02/12 02:03:51;;;;;;;15.23;2.30;;;24.20;66.60;;;;;;5035847;28;20184;-79
2022/02/12 02:06:20;;;;;;;8.97;2.50;;;23.80;70.60;;;;;;5034770;28;20189;-77
2022/02/12 02:08:47;;;;;;;7.50;1.97;;;23.20;75.00;;;;;;5035175;28;20227;-77
2022/02/12 02:11:15;;;;;;;5.50;1.83;;;22.80;78.30;;;;;;5035165;28;20207;-79
2022/02/12 02:13:43;;;;;;;11.00;2.83;;;22.50;78.40;;;;;;5035268;28;20180;-79
2022/02/12 02:16:15;;;;;;;10.10;2.30;;;22.50;78.20;;;;;;5035162;28;20180;-74
2022/02/12 02:18:42;;;;;;;13.47;2.53;;;22.20;78.90;;;;;;5029758;28;20203;-79
2022/02/12 02:21:10;;;;;;;9.60;2.33;;;21.60;82.50;;;;;;5033149;28;20311;-76
2022/02/12 02:23:38;;;;;;;10.90;2.23;;;21.10;85.70;;;;;;5033873;28;20184;-80
2022/02/12 02:26:07;;;;;;;9.67;2.63;;;20.70;87.20;;;;;;5050544;28;20189;-78
2022/02/12 02:28:35;;;;;;;10.83;2.60;;;20.70;87.70;;;;;;5031170;28;21242;-78
2022/02/12 02:31:03;;;;;;;8.93;2.50;;;20.60;88.40;;;;;;5033670;28;20223;-79
2022/02/12 02:33:30;;;;;;;9.40;2.50;;;20.80;88.90;;;;;;5032487;28;20199;-78
2022/02/12 02:36:01;;;;;;;9.47;2.50;;;20.80;88.10;;;;;;5027402;28;20211;-78
2022/02/12 02:38:28;;;;;;;14.10;3.77;;;20.80;87.80;;;;;;5049200;28;20235;-78
2022/02/12 02:40:56;;;;;;;13.43;3.13;;;20.70;87.80;;;;;;5049115;28;20232;-77
2022/02/12 02:43:24;;;;;;;13.47;2.60;;;20.70;86.90;;;;;;5034226;28;20658;-77
2022/02/12 02:45:52;;;;;;;10.03;2.17;;;20.70;86.70;;;;;;5035118;28;20192;-79
2022/02/12 02:48:19;;;;;;;11.70;2.67;;;20.80;88.30;;;;;;5034348;28;20228;-78
2022/02/12 02:56:18;;;;;;;11.60;3.47;;;20.90;88.40;;;;;;5034486;28;20543;-78
2022/02/12 02:58:48;;;;;;;13.53;2.70;;;21.00;87.10;;;;;;5034217;28;20196;-77
2022/02/12 03:01:18;;;;;;;12.93;2.63;;;21.00;87.40;;;;;;5034318;28;20257;-79
2022/02/12 03:03:47;;;;;;;12.00;2.83;;;21.10;87.30;;;;;;5033662;28;20625;-78
2022/02/12 03:06:16;;;;;;;11.17;2.70;;;21.00;86.00;;;;;;5034126;28;20192;-78
2022/02/12 03:08:44;;;;;;;10.80;2.73;;;21.20;87.40;;;;;;5032959;28;20674;-77
2022/02/12 03:11:13;;;;;;;8.97;2.33;;;21.30;86.40;;;;;;5033852;28;20215;-78
2022/02/12 03:13:42;;;;;;;12.67;2.83;;;21.50;86.90;;;;;;5033489;28;20297;-77
2022/02/12 03:16:11;;;;;;;10.57;2.60;;;21.70;86.90;;;;;;5035155;28;20200;-76
2022/02/12 03:18:40;;;;;;;15.13;2.97;;;21.60;86.60;;;;;;5035610;28;20259;-77
2022/02/12 03:21:07;;;;;;;14.23;2.70;;;21.50;85.40;;;;;;5034606;28;20223;-81
2022/02/12 03:23:35;;;;;;;12.60;2.77;;;21.40;86.00;;;;;;5033943;28;20181;-81
2022/02/12 03:26:02;;;;;;;13.33;3.53;;;21.40;86.20;;;;;;5034308;28;20184;-79
2022/02/12 03:28:33;;;;;;;11.00;3.20;;;21.40;87.10;;;;;;5034934;28;20181;-76
2022/02/12 03:31:00;;;;;;;16.27;3.27;;;21.50;88.50;;;;;;5029080;28;20188;-78
2022/02/12 03:33:28;;;;;;;12.10;3.03;;;21.70;87.50;;;;;;5033807;28;20242;-78
2022/02/12 03:35:55;;;;;;;12.30;3.13;;;21.60;85.40;;;;;;5033599;28;20230;-78
2022/02/12 03:38:28;;;;;;;12.03;2.93;;;21.70;85.50;;;;;;5033456;28;20173;-80
2022/02/12 03:40:58;;;;;;;13.90;3.10;;;21.80;86.30;;;;;;5033289;28;20362;-79
2022/02/12 03:43:26;;;;;;;16.60;3.17;;;21.90;86.20;;;;;;5033582;28;20603;-78
2022/02/12 03:45:53;;;;;;;19.10;2.80;;;21.90;85.30;;;;;;5033694;28;20256;-78
2022/02/12 03:48:22;;;;;;;17.70;2.80;;;21.90;82.20;;;;;;5049062;28;20540;-79
2022/02/12 03:50:52;;;;;;;19.60;2.43;;;22.00;82.40;;;;;;5033288;28;20220;-79
2022/02/12 03:53:20;;;;;;;20.93;3.50;;;22.10;83.30;;;;;;5033242;28;20204;-78
2022/02/12 03:55:47;;;;;;;21.87;2.87;;;22.20;83.20;;;;;;5033534;28;20192;-79
2022/02/12 03:58:17;;;;;;;17.03;2.60;;;22.20;82.40;;;;;;5033932;28;20184;-83
2022/02/12 04:00:46;;;;;;;15.90;2.80;;;22.00;82.30;;;;;;5034220;28;20204;-79
2022/02/12 04:03:14;;;;;;;7.40;2.23;;;21.80;79.90;;;;;;5033996;28;20195;-82
2022/02/12 04:05:45;;;;;;;13.10;3.10;;;21.60;82.60;;;;;;5033939;28;20184;-81
2022/02/12 04:08:13;;;;;;;11.90;2.43;;;21.40;83.30;;;;;;5031980;28;20319;-77
2022/02/12 04:10:41;;;;;;;8.83;2.27;;;21.30;84.40;;;;;;5033597;28;20184;-77
2022/02/12 04:13:08;;;;;;;7.90;2.20;;;21.20;84.20;;;;;;5033148;28;20275;-77
2022/02/12 04:15:35;;;;;;;7.80;2.33;;;21.00;84.90;;;;;;5033236;28;20705;-79
2022/02/12 04:18:03;;;;;;;8.80;3.03;;;20.70;85.70;;;;;;5032967;28;20189;-77
2022/02/12 04:20:31;;;;;;;6.73;2.13;;;20.70;86.20;;;;;;5033513;28;20187;-76
2022/02/12 04:22:58;;;;;;;8.50;2.27;;;20.90;86.30;;;;;;5032863;28;20187;-78
2022/02/12 04:25:27;;;;;;;9.10;2.50;;;21.10;85.30;;;;;;5033370;28;20611;-77
2022/02/12 04:27:54;;;;;;;6.23;1.80;;;21.20;84.60;;;;;;5031145;28;20212;-78
2022/02/12 04:30:22;;;;;;;7.83;2.07;;;21.30;83.30;;;;;;5033240;28;20185;-76
2022/02/12 04:32:49;;;;;;;9.57;2.43;;;21.50;83.60;;;;;;5033038;28;20267;-78
2022/02/12 04:35:16;;;;;;;5.40;1.70;;;21.70;83.20;;;;;;5032885;28;20185;-76
2022/02/12 04:37:44;;;;;;;10.20;2.63;;;21.70;83.50;;;;;;5032639;28;20616;-77
2022/02/12 04:40:13;;;;;;;10.20;2.17;;;21.50;83.80;;;;;;5032875;28;20192;-76
2022/02/12 04:42:41;;;;;;;7.50;2.53;;;21.50;83.00;;;;;;5032527;28;20285;-76
2022/02/12 04:45:09;;;;;;;8.00;2.17;;;21.50;83.90;;;;;;5032996;28;20184;-77
2022/02/12 04:47:37;;;;;;;9.73;2.60;;;21.50;84.50;;;;;;5031382;28;20279;-79
2022/02/12 04:50:06;;;;;;;10.50;2.87;;;21.30;84.70;;;;;;5033276;28;20212;-79
2022/02/12 04:52:33;;;;;;;14.47;3.47;;;21.50;86.30;;;;;;5029501;28;20176;-79
2022/02/12 04:55:01;;;;;;;10.67;3.03;;;21.50;85.80;;;;;;5031913;28;20219;-81
2022/02/12 04:57:31;;;;;;;17.83;8.33;;;21.30;86.40;;;;;;5032303;28;20188;-82
2022/02/12 04:59:58;;;;;;;9.20;2.40;;;21.30;86.80;;;;;;5029732;28;20666;-74
2022/02/12 05:02:25;;;;;;;9.83;2.50;;;20.80;85.00;;;;;;5032879;28;20216;-79
2022/02/12 05:04:53;;;;;;;8.63;2.40;;;20.60;85.20;;;;;;5032819;28;20650;-88
2022/02/12 05:07:20;;;;;;;6.17;2.00;;;20.70;87.30;;;;;;5032950;28;20208;-79
2022/02/12 05:09:48;;;;;;;10.03;2.30;;;20.80;87.80;;;;;;5032321;28;20540;-78
2022/02/12 05:12:15;;;;;;;8.27;2.27;;;20.70;87.80;;;;;;5031487;28;20192;-85
2022/02/12 05:14:42;;;;;;;7.53;1.80;;;20.70;88.10;;;;;;5032660;28;20191;-78
2022/02/12 05:17:10;;;;;;;10.37;3.00;;;20.70;88.20;;;;;;5032361;28;20262;-76
2022/02/12 05:19:37;;;;;;;11.83;2.37;;;20.60;87.80;;;;;;5032197;28;20185;-78
2022/02/12 05:22:04;;;;;;;11.63;2.40;;;20.60;88.60;;;;;;5030378;28;20219;-80
2022/02/12 05:24:32;;;;;;;14.70;2.67;;;20.50;88.00;;;;;;5032309;28;20208;-79
2022/02/12 05:26:59;;;;;;;9.23;2.70;;;20.40;87.70;;;;;;5031879;28;20220;-78
2022/02/12 05:29:30;;;;;;;8.37;2.40;;;20.50;88.00;;;;;;5033280;28;20177;-79
2022/02/12 05:31:57;;;;;;;7.00;2.10;;;20.40;88.00;;;;;;5046807;28;20189;-77
2022/02/12 05:34:24;;;;;;;9.47;2.50;;;20.40;87.40;;;;;;5045179;28;20177;-77
2022/02/12 05:36:52;;;;;;;8.80;2.60;;;20.50;88.10;;;;;;5062065;28;20200;-78
2022/02/12 05:39:19;;;;;;;15.10;2.83;;;20.50;88.90;;;;;;5046875;28;20188;-75
2022/02/12 05:41:47;;;;;;;10.33;2.40;;;20.50;89.10;;;;;;5044110;28;21241;-76
2022/02/12 05:44:14;;;;;;;9.67;2.77;;;20.50;87.80;;;;;;5034038;28;20172;-78
2022/02/12 05:46:42;;;;;;;13.83;3.40;;;20.40;87.80;;;;;;5031533;28;20259;-80
2022/02/12 05:49:09;;;;;;;15.97;4.87;;;20.30;87.10;;;;;;5030780;28;20188;-79
2022/02/12 05:51:37;;;;;;;17.57;4.73;;;19.90;88.40;;;;;;5031646;28;20177;-79
2022/02/12 05:54:05;;;;;;;12.23;2.77;;;19.80;89.20;;;;;;5032217;28;20173;-80
2022/02/12 05:56:34;;;;;;;12.53;2.87;;;20.00;89.20;;;;;;5032177;28;20184;-80
2022/02/12 05:59:03;;;;;;;16.10;6.07;;;20.10;89.20;;;;;;5030079;28;20654;-85
2022/02/12 06:01:30;;;;;;;16.13;8.57;;;20.30;88.80;;;;;;5032189;28;20254;-83
2022/02/12 06:03:58;;;;;;;12.23;3.50;;;20.50;89.10;;;;;;5032186;28;20655;-83
2022/02/12 06:06:25;;;;;;;15.23;3.47;;;20.70;88.20;;;;;;5031521;28;20176;-78
2022/02/12 06:08:55;;;;;;;12.30;2.77;;;20.80;88.40;;;;;;5029616;28;20249;-80
2022/02/12 06:11:23;;;;;;;14.50;2.93;;;21.10;88.60;;;;;;5032013;28;20176;-79
2022/02/12 06:13:51;;;;;;;11.97;2.53;;;21.20;87.30;;;;;;5031057;28;20177;-78
2022/02/12 06:16:23;;;;;;;12.03;2.50;;;21.20;86.30;;;;;;5032277;28;20469;-79
2022/02/12 06:18:51;;;;;;;7.60;2.50;;;21.30;85.40;;;;;;5031170;28;20183;-77
2022/02/12 06:21:18;;;;;;;11.20;2.10;;;21.50;85.70;;;;;;5028228;28;20204;-77
2022/02/12 06:23:45;;;;;;;14.27;4.20;;;21.70;84.10;;;;;;5030968;28;20181;-78
2022/02/12 06:26:13;;;;;;;9.93;3.20;;;21.70;83.90;;;;;;5031738;28;20190;-79
2022/02/12 06:28:40;;;;;;;18.27;3.60;;;21.70;84.50;;;;;;5027184;28;20275;-77
2022/02/12 06:31:07;;;;;;;13.37;2.70;;;21.70;85.20;;;;;;5030677;28;20175;-77
2022/02/12 06:33:35;;;;;;;11.17;2.77;;;21.70;83.10;;;;;;5030562;28;20263;-78
2022/02/12 06:36:02;;;;;;;12.40;2.43;;;21.50;83.00;;;;;;5031453;28;20173;-84
2022/02/12 06:38:30;;;;;;;10.20;2.57;;;21.40;83.60;;;;;;5030714;28;20710;-81
2022/02/12 06:40:58;;;;;;;17.50;3.17;;;21.20;83.50;;;;;;5029882;28;20263;-79
2022/02/12 06:43:26;;;;;;;16.13;3.47;;;21.10;83.30;;;;;;5031220;28;20709;-78
2022/02/12 06:45:53;;;;;;;12.20;2.57;;;20.90;83.80;;;;;;5031426;28;20272;-83
2022/02/12 06:48:24;;;;;;;14.13;2.83;;;20.60;83.80;;;;;;5046015;28;20184;-77
2022/02/12 06:50:51;;;;;;;11.20;2.63;;;20.30;85.40;;;;;;5034479;28;20196;-77
2022/02/12 06:53:18;;;;;;;9.77;2.77;;;20.10;87.40;;;;;;5031896;28;20512;-77
2022/02/12 06:55:46;;;;;;;11.80;2.30;;;19.80;88.40;;;;;;5034201;28;20189;-79
2022/02/12 06:58:13;;;;;;;11.90;2.90;;;19.70;89.10;;;;;;5034503;28;20219;-79
2022/02/12 07:00:41;;;;;;;11.10;2.50;;;19.60;89.10;;;;;;5034228;28;20177;-79
2022/02/12 07:03:08;;;;;;;14.67;3.27;;;19.50;89.90;;;;;;5034174;28;20203;-79
2022/02/12 07:05:36;;;;;;;13.60;3.20;;;19.50;90.20;;;;;;5034130;28;20177;-80
2022/02/12 07:08:04;;;;;;;14.83;3.20;;;19.60;90.20;;;;;;5034418;28;20279;-79
2022/02/12 07:10:34;;;;;;;13.27;3.10;;;19.70;90.20;;;;;;5031427;28;20185;-81
2022/02/12 07:13:02;;;;;;;13.80;2.90;;;19.80;89.70;;;;;;5031525;28;20647;-81
2022/02/12 07:15:30;;;;;;;14.10;3.03;;;19.90;89.00;;;;;;5035036;28;20183;-86
2022/02/12 07:17:58;;;;;;;10.70;2.57;;;19.90;88.10;;;;;;5035351;28;20207;-87
2022/02/12 07:20:25;;;;;;;10.20;2.60;;;20.00;89.30;;;;;;5035235;28;20742;-85
2022/02/12 07:22:52;;;;;;;9.30;3.30;;;20.00;89.80;;;;;;5033870;28;20189;-84
2022/02/12 07:25:20;;;;;;;9.23;3.70;;;20.10;89.80;;;;;;5035588;28;20183;-85
2022/02/12 07:27:47;;;;;;;11.60;3.90;;;20.10;89.10;;;;;;5034113;28;20184;-87
2022/02/12 07:30:18;;;;;;;12.93;3.27;;;20.00;89.80;;;;;;5031495;28;20180;-83
2022/02/12 07:32:45;;;;;;;18.37;3.20;;;20.00;89.50;;;;;;5033283;28;20266;-86
2022/02/12 07:35:14;;;;;;;14.27;3.23;;;19.90;89.40;;;;;;5038173;28;20673;-82
2022/02/12 07:37:44;;;;;;;13.17;3.67;;;19.90;89.10;;;;;;5040007;28;20200;-82
2022/02/12 07:40:18;;;;;;;15.57;3.80;;;19.90;89.00;;;;;;5044186;28;20328;-79
2022/02/12 07:42:46;;;;;;;16.23;3.97;;;20.00;89.40;;;;;;5040867;28;20232;-80
2022/02/12 07:45:19;;;;;;;14.87;4.50;;;20.00;89.40;;;;;;5036184;28;20208;-85
2022/02/12 07:47:49;;;;;;;10.57;3.50;;;20.10;89.30;;;;;;5033788;28;20176;-79
2022/02/12 07:50:18;;;;;;;12.63;3.60;;;20.00;89.00;;;;;;5033022;28;20185;-81
2022/02/12 07:52:46;;;;;;;15.00;4.53;;;19.90;88.80;;;;;;5033996;28;20256;-83
2022/02/12 07:55:15;;;;;;;16.70;3.53;;;19.90;88.60;;;;;;5032735;28;20188;-81
2022/02/12 07:57:42;;;;;;;11.43;3.17;;;19.80;88.00;;;;;;5031730;28;20288;-78
2022/02/12 08:00:14;;;;;;;10.93;3.53;;;19.70;88.10;;;;;;5033576;28;20203;-78
2022/02/12 08:02:42;;;;;;;16.63;3.47;;;19.70;88.20;;;;;;5031821;28;20212;-75
2022/02/12 08:05:10;;;;;;;13.27;2.73;;;19.70;87.80;;;;;;5033682;28;20636;-80
2022/02/12 08:07:40;;;;;;;14.17;2.80;;;19.70;87.50;;;;;;5032712;28;20176;-80
2022/02/12 08:12:59;;;;;;;15.03;3.77;;;19.70;88.00;;;;;;5032809;28;20696;-80
2022/02/12 08:15:26;;;;;;;13.40;3.00;;;19.80;88.80;;;;;;5033662;28;20550;-81
2022/02/12 08:17:53;;;;;;;12.70;2.83;;;19.80;88.20;;;;;;5032990;28;20181;-83
2022/02/12 08:20:21;;;;;;;16.10;3.67;;;19.70;88.50;;;;;;5032703;28;20267;-74
2022/02/12 08:22:51;;;;;;;21.00;5.57;;;19.70;88.50;;;;;;5032601;28;20585;-80
2022/02/12 08:25:19;;;;;;;16.17;4.90;;;19.60;88.20;;;;;;5032831;28;20184;-77
2022/02/12 08:27:47;;;;;;;12.60;3.53;;;19.60;88.80;;;;;;5031890;28;20184;-80
2022/02/12 08:30:15;;;;;;;11.10;3.30;;;19.60;89.40;;;;;;5032485;28;20179;-76
2022/02/12 08:32:44;;;;;;;21.07;3.63;;;19.50;89.10;;;;;;5031732;28;21562;-77
2022/02/12 08:35:13;;;;;;;16.03;2.87;;;19.50;89.30;;;;;;5032987;28;20216;-78
2022/02/12 08:37:44;;;;;;;9.13;2.57;;;19.40;89.50;;;;;;5032495;28;20208;-78
2022/02/12 08:40:14;;;;;;;14.33;4.53;;;19.40;89.80;;;;;;5032595;28;20674;-83
2022/02/12 08:42:42;;;;;;;14.33;4.37;;;19.50;90.40;;;;;;5031884;28;20232;-79
2022/02/12 08:45:10;;;;;;;14.63;4.23;;;19.50;91.00;;;;;;5032382;28;20781;-81
2022/02/12 08:47:37;;;;;;;14.87;4.07;;;19.30;91.00;;;;;;5031918;28;20275;-81
2022/02/12 08:50:08;;;;;;;11.23;3.00;;;19.20;91.70;;;;;;5031635;28;20267;-80
2022/02/12 08:52:37;;;;;;;9.67;3.40;;;19.20;91.70;;;;;;5031029;28;20219;-80
2022/02/12 08:55:05;;;;;;;9.07;2.80;;;19.00;92.20;;;;;;5029343;28;20209;-79
2022/02/12 08:57:32;;;;;;;6.03;2.70;;;18.90;92.30;;;;;;5046792;28;20181;-81
2022/02/12 08:59:59;;;;;;;7.67;2.53;;;18.80;92.50;;;;;;5032856;28;20176;-81
2022/02/12 09:02:27;;;;;;;8.63;2.57;;;18.80;92.80;;;;;;5031397;28;20200;-80
2022/02/12 09:04:55;;;;;;;11.50;2.90;;;18.80;93.00;;;;;;5032373;28;20540;-81
2022/02/12 09:07:22;;;;;;;7.47;2.77;;;18.80;93.20;;;;;;5031673;28;20177;-80
2022/02/12 09:09:49;;;;;;;9.30;2.53;;;18.80;93.40;;;;;;5032033;28;20186;-82
2022/02/12 09:12:17;;;;;;;3.57;2.13;;;18.80;93.30;;;;;;5031293;28;20181;-79
2022/02/12 09:14:44;;;;;;;7.70;2.40;;;18.70;92.90;;;;;;5032258;28;20242;-81
2022/02/12 09:17:12;;;;;;;7.50;2.20;;;18.70;93.00;;;;;;5031689;28;20199;-81
2022/02/12 09:19:39;;;;;;;4.03;2.70;;;18.70;93.10;;;;;;5032517;28;20238;-81
2022/02/12 09:22:06;;;;;;;9.80;3.80;;;18.70;93.40;;;;;;5030097;28;20219;-81
2022/02/12 09:24:34;;;;;;;6.40;2.13;;;18.80;93.50;;;;;;5031768;28;20961;-78
2022/02/12 09:27:01;;;;;;;5.07;2.10;;;18.70;93.30;;;;;;5031957;28;20323;-80
2022/02/12 09:29:29;;;;;;;8.87;2.43;;;18.70;93.40;;;;;;5028230;28;20180;-79
2022/02/12 09:31:56;;;;;;;5.93;2.13;;;18.60;93.40;;;;;;5031851;28;20692;-80
2022/02/12 09:34:23;;;;;;;4.83;2.43;;;18.60;93.80;;;;;;5032429;28;20176;-79
2022/02/12 09:36:51;;;;;;;5.47;2.53;;;18.60;93.70;;;;;;5029967;28;20191;-80
2022/02/12 09:39:18;;;;;;;7.10;2.70;;;18.50;93.60;;;;;;5031703;28;20234;-79
2022/02/12 09:41:46;;;;;;;7.10;2.40;;;18.50;93.90;;;;;;5031560;28;20310;-80
2022/02/12 09:44:16;;;;;;;7.03;2.20;;;18.50;93.60;;;;;;5046447;28;20196;-79
2022/02/12 09:46:52;;;;;;;7.37;2.60;;;18.50;93.70;;;;;;5032003;28;20188;-79
2022/02/12 09:49:20;;;;;;;6.23;2.80;;;18.50;93.90;;;;;;5031887;28;20191;-79
2022/02/12 09:51:49;;;;;;;8.17;2.97;;;18.60;94.30;;;;;;5030071;28;20216;-79
2022/02/12 09:54:16;;;;;;;4.53;2.87;;;18.60;93.70;;;;;;5045751;28;20180;-77
2022/02/12 09:56:44;;;;;;;8.03;3.07;;;18.70;94.10;;;;;;5030522;28;20628;-77
2022/02/12 09:59:12;;;;;;;7.70;3.10;;;18.70;94.10;;;;;;5031693;28;20212;-78
2022/02/12 10:01:40;;;;;;;8.30;3.40;;;18.70;94.00;;;;;;5046359;28;20224;-79
2022/02/12 10:04:19;;;;;;;8.83;3.17;;;18.70;94.10;;;;;;5030463;28;20184;-79
2022/02/12 10:06:48;;;;;;;7.63;2.40;;;18.70;94.10;;;;;;5030709;28;20595;-80
2022/02/12 10:09:16;;;;;;;6.60;2.67;;;18.60;93.90;;;;;;5031609;28;20181;-80
2022/02/12 10:11:45;;;;;;;5.40;2.60;;;18.60;94.00;;;;;;5030973;28;20577;-79
2022/02/12 10:14:23;;;;;;;10.37;2.53;;;18.60;94.20;;;;;;5046802;28;20234;-79
2022/02/12 10:17:00;;;;;;;7.00;2.17;;;18.60;94.30;;;;;;5030037;28;20192;-80
2022/02/12 10:19:36;;;;;;;7.67;3.00;;;18.60;94.20;;;;;;5029142;28;20180;-80
2022/02/12 10:22:19;;;;;;;4.93;2.40;;;18.50;94.20;;;;;;5030488;28;20220;-77
2022/02/12 10:25:03;;;;;;;9.77;2.43;;;18.50;94.20;;;;;;5034494;28;20207;-78
2022/02/12 10:27:34;;;;;;;11.93;2.87;;;18.50;94.40;;;;;;5034155;28;20250;-82
2022/02/12 10:30:03;;;;;;;12.27;2.80;;;18.50;94.30;;;;;;5028049;28;20177;-80
2022/02/12 10:32:31;;;;;;;6.17;2.50;;;18.50;94.70;;;;;;5034670;28;20206;-78
2022/02/12 10:34:58;;;;;;;7.53;2.73;;;18.60;94.50;;;;;;5033693;28;20189;-78
2022/02/12 10:37:26;;;;;;;7.30;2.37;;;18.60;94.60;;;;;;5033287;28;20642;-78
2022/02/12 10:39:59;;;;;;;6.77;2.87;;;18.50;94.30;;;;;;5033272;28;20204;-79
2022/02/12 10:42:31;;;;;;;8.60;2.43;;;18.40;94.40;;;;;;5035079;28;20652;-79
2022/02/12 10:44:58;;;;;;;7.23;2.90;;;18.50;94.50;;;;;;5033987;28;20643;-78
2022/02/12 10:47:26;;;;;;;5.57;2.37;;;18.50;94.70;;;;;;5034506;28;20185;-78
2022/02/12 10:49:54;;;;;;;8.70;2.30;;;18.50;94.40;;;;;;5034879;28;20659;-76
2022/02/12 10:52:22;;;;;;;11.90;2.80;;;18.50;94.40;;;;;;5034159;28;20234;-77
2022/02/12 10:54:51;;;;;;;7.57;2.60;;;18.40;94.40;;;;;;5033329;28;20216;-80
2022/02/12 10:57:29;;;;;;;7.13;2.33;;;18.40;94.50;;;;;;5034697;28;20187;-77
2022/02/12 10:59:58;;;;;;;6.93;2.83;;;18.50;94.70;;;;;;5034653;28;20215;-77
2022/02/12 11:02:27;;;;;;;8.40;2.50;;;18.50;94.60;;;;;;5035828;28;20216;-77
2022/02/12 11:04:59;;;;;;;7.37;2.53;;;18.50;94.60;;;;;;5035468;28;20184;-75
2022/02/12 11:07:27;;;;;;;11.57;3.43;;;18.50;94.50;;;;;;5034316;28;20189;-77
2022/02/12 11:09:54;;;;;;;9.53;2.60;;;18.50;94.60;;;;;;5034308;28;20176;-76
2022/02/12 11:12:25;;;;;;;5.90;2.30;;;18.50;94.50;;;;;;5029876;28;20189;-77
2022/02/12 11:14:53;;;;;;;9.00;2.77;;;18.60;94.60;;;;;;5030023;28;20184;-77
2022/02/12 11:17:25;;;;;;;12.07;2.60;;;18.50;94.60;;;;;;5030792;28;20180;-77
2022/02/12 11:19:53;;;;;;;7.20;3.00;;;18.50;94.70;;;;;;5047752;28;20227;-79
2022/02/12 11:22:21;;;;;;;8.80;3.00;;;18.50;94.90;;;;;;5032951;28;20223;-78
2022/02/12 11:24:48;;;;;;;11.87;2.60;;;18.60;94.80;;;;;;5033290;28;20560;-78
2022/02/12 11:27:22;;;;;;;6.97;2.33;;;18.50;94.80;;;;;;5032652;28;20620;-76
2022/02/12 11:29:54;;;;;;;7.90;2.40;;;18.50;94.70;;;;;;5027227;28;20262;-76
2022/02/12 11:32:24;;;;;;;11.13;2.63;;;18.50;94.70;;;;;;5032473;28;20220;-75
2022/02/12 11:35:09;;;;;;;9.27;2.77;;;18.50;94.80;;;;;;5032728;28;20564;-74
2022/02/12 11:37:45;;;;;;;9.83;2.77;;;18.50;94.70;;;;;;5031626;28;20180;-76
2022/02/12 11:40:20;;;;;;;12.73;3.47;;;18.50;94.50;;;;;;5028712;28;20203;-75
2022/02/12 11:42:51;;;;;;;8.90;3.50;;;18.40;94.40;;;;;;5033022;28;20230;-75
2022/02/12 11:45:26;;;;;;;10.67;2.80;;;18.40;94.50;;;;;;5033634;28;20181;-76
2022/02/12 11:48:11;;;;;;;8.70;3.03;;;18.50;94.70;;;;;;5033139;28;20191;-75
2022/02/12 11:50:50;;;;;;;8.73;2.63;;;18.60;94.80;;;;;;5033301;28;20632;-75
2022/02/12 11:53:35;;;;;;;14.70;3.60;;;18.60;94.60;;;;;;5031517;28;20180;-76
2022/02/12 11:56:18;;;;;;;12.60;3.20;;;18.60;94.40;;;;;;5032171;28;20188;-75
2022/02/12 11:58:45;;;;;;;11.67;3.23;;;18.60;94.40;;;;;;5032846;28;20218;-75
2022/02/12 12:01:28;;;;;;;14.93;3.47;;;18.60;94.30;;;;;;5033344;28;20196;-77
2022/02/12 12:04:16;;;;;;;15.67;3.90;;;18.70;94.70;;;;;;5031757;28;20324;-75
2022/02/12 12:07:05;;;;;;;12.77;3.53;;;18.70;94.90;;;;;;5032118;28;20231;-75
2022/02/12 12:09:34;;;;;;;9.30;2.93;;;18.80;94.70;;;;;;5032942;28;20188;-77
2022/02/12 12:12:28;;;;;;;17.20;3.30;;;18.80;94.70;;;;;;5033282;28;20215;-77
2022/02/12 12:15:18;;;;;;;12.53;2.77;;;18.70;94.20;;;;;;5031291;28;20204;-75
2022/02/12 12:17:55;;;;;;;19.40;3.73;;;18.70;94.20;;;;;;5032120;28;20188;-75
2022/02/12 12:20:32;;;;;;;10.43;2.83;;;18.60;94.10;;;;;;5028650;28;20176;-75
2022/02/12 12:23:08;;;;;;;13.00;3.40;;;18.60;94.00;;;;;;5030176;28;20212;-77
2022/02/12 12:26:11;;;;;;;13.37;3.00;;;18.50;93.90;;;;;;5030496;28;20215;-76
2022/02/12 12:28:40;;;;;;;15.67;3.50;;;18.60;94.10;;;;;;5010582;28;20185;-75
2022/02/12 12:31:14;;;;;;;12.97;3.17;;;18.60;93.90;;;;;;5028968;28;20184;-75
2022/02/12 12:33:46;;;;;;;12.03;3.00;;;18.50;93.80;;;;;;5031439;28;20177;-75
2022/02/12 12:36:18;;;;;;;10.33;2.50;;;18.50;94.10;;;;;;5032331;28;20184;-77
2022/02/12 12:38:47;;;;;;;10.87;3.23;;;18.50;94.10;;;;;;5032822;28;20176;-76
2022/02/12 12:41:31;;;;;;;14.53;3.47;;;18.50;94.00;;;;;;5031845;28;20967;-79
2022/02/12 12:44:13;;;;;;;13.53;3.03;;;18.60;94.10;;;;;;5031847;28;20199;-75
2022/02/12 12:46:49;;;;;;;11.07;3.60;;;18.60;94.20;;;;;;5030218;28;20259;-76
2022/02/12 12:49:39;;;;;;;9.77;2.80;;;18.50;94.10;;;;;;5030598;28;20344;-75
2022/02/12 12:52:09;;;;;;;13.07;3.17;;;18.50;94.10;;;;;;5026791;28;20180;-79
2022/02/12 12:54:42;;;;;;;14.50;3.63;;;18.50;94.30;;;;;;5032569;28;20188;-79
2022/02/12 12:57:11;;;;;;;15.80;3.27;;;18.60;94.60;;;;;;5032270;28;20172;-79
2022/02/12 12:59:56;;;;;;;12.20;3.33;;;18.60;94.70;;;;;;5032461;28;20181;-79